Time;durP1;ratioP1;P1;durP2;ratioP2;P2;SDS_P1;SDS_P2;PMS_P1;PMS_P2;Temp;Humidity;BMP_temperature;BMP_pressure;BME280_temperature;BME280_humidity;BME280_pressure;Samples;Min_cycle;Max_cycle;Signal;HPM_P1;HPM_P2
2021/10/29 00:00:51;;;;;;;;;;;10.30;99.90;;;;;;5092285;28;19998;-62
2021/10/29 00:03:17;;;;;;;;;;;10.30;99.90;;;;;;5092026;28;20014;-62
2021/10/29 00:05:42;;;;;;;;;;;10.30;99.90;;;;;;5091798;28;19927;-63
2021/10/29 00:08:08;;;;;;;;;;;10.30;99.90;;;;;;5091867;28;19923;-63
2021/10/29 00:10:34;;;;;;;;;;;10.30;99.90;;;;;;5091845;28;19923;-62
2021/10/29 00:13:00;;;;;;;;;;;10.30;99.90;;;;;;5091756;28;19923;-62
2021/10/29 00:15:25;;;;;;;;;;;10.30;99.90;;;;;;5092054;28;19916;-63
2021/10/29 00:17:51;;;;;;;;;;;10.30;99.90;;;;;;5091943;28;19999;-62
2021/10/29 00:20:17;;;;;;;;;;;10.20;99.90;;;;;;5091880;28;19916;-63
2021/10/29 00:22:42;;;;;;;;;;;10.30;99.90;;;;;;5092103;28;20022;-62
2021/10/29 00:25:08;;;;;;;;;;;10.20;99.90;;;;;;5091926;28;19927;-62
2021/10/29 00:27:33;;;;;;;;;;;10.20;99.90;;;;;;5094951;28;19955;-62
2021/10/29 00:29:59;;;;;;;;;;;10.20;99.90;;;;;;5095857;28;19999;-62
2021/10/29 00:32:25;;;;;;;;;;;10.20;99.90;;;;;;5095554;28;20000;-60
2021/10/29 00:34:51;;;;;;;;;;;10.20;99.90;;;;;;5095454;28;19920;-60
2021/10/29 00:37:16;;;;;;;;;;;10.20;99.90;;;;;;5095386;28;19916;-60
2021/10/29 00:39:42;;;;;;;;;;;10.20;99.90;;;;;;5095285;28;20262;-60
2021/10/29 00:42:08;;;;;;;;;;;10.20;99.90;;;;;;5095503;28;19967;-62
2021/10/29 00:44:34;;;;;;;;;;;10.20;99.90;;;;;;5095153;28;20030;-62
2021/10/29 00:46:59;;;;;;;;;;;10.20;99.90;;;;;;5095432;28;20028;-62
2021/10/29 00:49:25;;;;;;;;;;;10.10;99.90;;;;;;5095138;28;19963;-62
2021/10/29 00:51:51;;;;;;;;;;;10.10;99.90;;;;;;5095188;28;19920;-62
2021/10/29 00:54:18;;;;;;;;;;;10.10;99.90;;;;;;5095095;28;20018;-62
2021/10/29 00:56:44;;;;;;;;;;;10.10;99.90;;;;;;5095076;28;19998;-61
2021/10/29 00:59:10;;;;;;;;;;;10.10;99.90;;;;;;5095129;28;20006;-62
2021/10/29 01:01:36;;;;;;;;;;;10.10;99.90;;;;;;5095087;28;20023;-61
2021/10/29 01:04:02;;;;;;;;;;;10.00;99.90;;;;;;5094705;28;19918;-62
2021/10/29 01:06:28;;;;;;;;;;;10.00;99.90;;;;;;5094931;28;20014;-62
2021/10/29 01:08:53;;;;;;;;;;;10.00;99.90;;;;;;5094814;28;20011;-62
2021/10/29 01:11:19;;;;;;;;;;;10.00;99.90;;;;;;5095139;28;20015;-62
2021/10/29 01:13:49;;;;;;;;;;;10.00;99.90;;;;;;5095209;28;20367;-62
2021/10/29 01:16:15;;;;;;;;;;;9.90;99.90;;;;;;5094780;28;19985;-62
2021/10/29 01:18:40;;;;;;;;;;;9.90;99.90;;;;;;5094841;28;19971;-61
2021/10/29 01:21:06;;;;;;;;;;;9.90;99.90;;;;;;5094695;28;19963;-62
2021/10/29 01:23:35;;;;;;;;;;;9.90;99.90;;;;;;5110287;28;19922;-63
2021/10/29 01:26:03;;;;;;;;;;;9.90;99.90;;;;;;5094727;28;19927;-62
2021/10/29 01:28:28;;;;;;;;;;;9.90;99.90;;;;;;5094615;28;20014;-62
2021/10/29 01:30:54;;;;;;;;;;;9.90;99.90;;;;;;5094579;28;20361;-62
2021/10/29 01:33:19;;;;;;;;;;;9.90;99.90;;;;;;5094325;28;20015;-62
2021/10/29 01:35:45;;;;;;;;;;;9.80;99.90;;;;;;5094195;28;19955;-62
2021/10/29 01:38:11;;;;;;;;;;;9.80;99.90;;;;;;5093952;28;19988;-62
2021/10/29 01:40:36;;;;;;;;;;;9.80;99.90;;;;;;5094117;28;19927;-62
2021/10/29 01:43:02;;;;;;;;;;;9.80;99.90;;;;;;5094107;28;19976;-62
2021/10/29 01:45:27;;;;;;;;;;;9.80;99.90;;;;;;5094023;28;20012;-61
2021/10/29 01:47:53;;;;;;;;;;;9.80;99.90;;;;;;5094040;28;19923;-61
2021/10/29 01:50:19;;;;;;;;;;;9.80;99.90;;;;;;5093997;28;19915;-61
2021/10/29 01:52:45;;;;;;;;;;;9.80;99.90;;;;;;5075961;28;19916;-62
2021/10/29 01:55:12;;;;;;;;;;;9.80;99.90;;;;;;5094129;28;19920;-62
2021/10/29 01:57:37;;;;;;;;;;;9.80;99.90;;;;;;5093879;28;19916;-62
2021/10/29 02:00:04;;;;;;;;;;;9.80;99.90;;;;;;5094271;28;19985;-63
2021/10/29 02:02:30;;;;;;;;;;;9.80;99.90;;;;;;5093753;28;19917;-61
2021/10/29 02:04:56;;;;;;;;;;;9.80;99.90;;;;;;5093622;28;19942;-61
2021/10/29 02:07:21;;;;;;;;;;;9.80;99.90;;;;;;5093829;28;20376;-62
2021/10/29 02:09:46;;;;;;;;;;;9.80;99.90;;;;;;5093920;28;19927;-62
2021/10/29 02:12:12;;;;;;;;;;;9.80;99.90;;;;;;5093932;28;19919;-61
2021/10/29 02:14:38;;;;;;;;;;;9.80;99.90;;;;;;5093710;28;20358;-62
2021/10/29 02:17:03;;;;;;;;;;;9.80;99.90;;;;;;5093558;28;19978;-61
2021/10/29 02:19:29;;;;;;;;;;;9.80;99.90;;;;;;5093299;28;20003;-62
2021/10/29 02:21:54;;;;;;;;;;;9.70;99.90;;;;;;5075535;28;20364;-63
2021/10/29 02:24:20;;;;;;;;;;;9.80;99.90;;;;;;5093198;28;20022;-62
2021/10/29 02:26:45;;;;;;;;;;;9.70;99.90;;;;;;5093446;28;20007;-62
2021/10/29 02:29:11;;;;;;;;;;;9.70;99.90;;;;;;5093355;28;20007;-62
2021/10/29 02:31:39;;;;;;;;;;;9.80;99.90;;;;;;5093290;28;19916;-62
2021/10/29 02:34:05;;;;;;;;;;;9.70;99.90;;;;;;5093007;28;19919;-62
2021/10/29 02:36:30;;;;;;;;;;;9.90;99.90;;;;;;5093103;28;19916;-62
2021/10/29 02:38:56;;;;;;;;;;;9.80;99.90;;;;;;5093219;28;19916;-62
2021/10/29 02:41:22;;;;;;;;;;;9.80;99.90;;;;;;5093139;28;19920;-62
2021/10/29 02:43:48;;;;;;;;;;;9.80;99.90;;;;;;5093145;28;19916;-62
2021/10/29 02:46:13;;;;;;;;;;;9.80;99.90;;;;;;5093007;28;20400;-61
2021/10/29 02:48:39;;;;;;;;;;;9.80;99.90;;;;;;5092874;28;20289;-61
2021/10/29 02:51:04;;;;;;;;;;;9.80;99.90;;;;;;5092506;28;19927;-61
2021/10/29 02:53:31;;;;;;;;;;;9.80;99.90;;;;;;5092916;28;19931;-61
2021/10/29 02:55:56;;;;;;;;;;;9.80;99.90;;;;;;5093145;28;19916;-62
2021/10/29 02:58:22;;;;;;;;;;;9.80;99.90;;;;;;5092811;28;20274;-61
2021/10/29 03:00:48;;;;;;;;;;;9.70;99.90;;;;;;5092621;28;19916;-62
2021/10/29 03:03:13;;;;;;;;;;;9.80;99.90;;;;;;5092676;28;19916;-61
2021/10/29 03:05:40;;;;;;;;;;;9.70;99.90;;;;;;5092714;28;20376;-61
2021/10/29 03:08:06;;;;;;;;;;;9.70;99.90;;;;;;5074842;28;19952;-61
2021/10/29 03:10:32;;;;;;;;;;;9.80;99.90;;;;;;5092716;28;19981;-62
2021/10/29 03:12:58;;;;;;;;;;;9.80;99.90;;;;;;5092545;28;20381;-61
2021/10/29 03:15:23;;;;;;;;;;;9.80;99.90;;;;;;5092343;28;19963;-62
2021/10/29 03:17:49;;;;;;;;;;;9.80;99.90;;;;;;5092441;28;19923;-62
2021/10/29 03:20:14;;;;;;;;;;;9.80;99.90;;;;;;5092471;28;19920;-62
2021/10/29 03:22:40;;;;;;;;;;;9.80;99.90;;;;;;5092602;28;19973;-61
2021/10/29 03:25:06;;;;;;;;;;;9.80;99.90;;;;;;5092244;28;20282;-62
2021/10/29 03:27:32;;;;;;;;;;;9.80;99.90;;;;;;5074145;28;20384;-62
2021/10/29 03:29:58;;;;;;;;;;;9.80;99.90;;;;;;5092352;28;19916;-62
2021/10/29 03:32:23;;;;;;;;;;;9.80;99.90;;;;;;5092239;28;19923;-61
2021/10/29 03:34:49;;;;;;;;;;;9.80;99.90;;;;;;5107794;28;20011;-62
2021/10/29 03:42:48;;;;;;;;;;;9.90;99.90;;;;;;5092025;28;20381;-61
2021/10/29 03:45:15;;;;;;;;;;;9.90;99.90;;;;;;5092048;28;19920;-62
2021/10/29 03:47:48;;;;;;;;;;;9.90;99.90;;;;;;5092265;28;19920;-62
2021/10/29 03:50:19;;;;;;;;;;;9.80;99.90;;;;;;5092219;28;19927;-62
2021/10/29 03:53:08;;;;;;;;;;;9.80;99.90;;;;;;5092109;28;19961;-61
2021/10/29 03:55:38;;;;;;;;;;;9.80;99.90;;;;;;5091979;28;19923;-62
2021/10/29 03:58:04;;;;;;;;;;;9.80;99.90;;;;;;5092186;28;19982;-63
2021/10/29 04:00:29;;;;;;;;;;;9.80;99.90;;;;;;5073907;28;20381;-61
2021/10/29 04:02:59;;;;;;;;;;;9.80;99.90;;;;;;5095655;28;19961;-62
2021/10/29 04:05:25;;;;;;;;;;;9.80;99.90;;;;;;5096053;28;19924;-62
2021/10/29 04:07:51;;;;;;;;;;;9.80;99.90;;;;;;5095857;28;20262;-62
2021/10/29 04:10:16;;;;;;;;;;;9.80;99.90;;;;;;5096179;28;20326;-62
2021/10/29 04:12:42;;;;;;;;;;;9.80;99.90;;;;;;5095861;28;20285;-62
2021/10/29 04:15:08;;;;;;;;;;;9.80;99.90;;;;;;5096032;28;20053;-62
2021/10/29 04:17:34;;;;;;;;;;;9.70;99.90;;;;;;5095784;28;20007;-62
2021/10/29 04:20:00;;;;;;;;;;;9.80;99.90;;;;;;5095866;28;20330;-62
2021/10/29 04:22:25;;;;;;;;;;;9.70;99.90;;;;;;5096201;28;20403;-62
2021/10/29 04:24:51;;;;;;;;;;;9.80;99.90;;;;;;5095737;28;20424;-63
2021/10/29 04:27:21;;;;;;;;;;;9.80;99.90;;;;;;5095777;28;20006;-61
2021/10/29 04:29:49;;;;;;;;;;;9.70;99.90;;;;;;5095793;28;19926;-62
2021/10/29 04:32:14;;;;;;;;;;;9.80;99.90;;;;;;5095637;28;19916;-62
2021/10/29 04:34:40;;;;;;;;;;;9.80;99.90;;;;;;5095833;28;19924;-62
2021/10/29 04:37:05;;;;;;;;;;;9.80;99.90;;;;;;5095473;28;20380;-62
2021/10/29 04:39:31;;;;;;;;;;;9.80;99.90;;;;;;5095481;28;20012;-61
2021/10/29 04:41:57;;;;;;;;;;;9.80;99.90;;;;;;5095554;28;19916;-62
2021/10/29 04:44:22;;;;;;;;;;;9.80;99.90;;;;;;5095153;28;19920;-62
2021/10/29 04:46:48;;;;;;;;;;;9.90;99.90;;;;;;5095363;28;19951;-62
2021/10/29 04:49:14;;;;;;;;;;;9.90;99.90;;;;;;5095345;28;19961;-62
2021/10/29 04:51:39;;;;;;;;;;;9.90;99.90;;;;;;5095131;28;19915;-62
2021/10/29 04:54:05;;;;;;;;;;;9.90;99.90;;;;;;5095026;28;19969;-62
2021/10/29 04:56:30;;;;;;;;;;;9.90;99.90;;;;;;5095337;28;19999;-62
2021/10/29 04:58:56;;;;;;;;;;;10.00;99.90;;;;;;5094977;28;19994;-61
2021/10/29 05:01:22;;;;;;;;;;;10.00;99.90;;;;;;5110795;28;19923;-62
2021/10/29 05:03:47;;;;;;;;;;;9.90;99.90;;;;;;5094935;28;19916;-62
2021/10/29 05:06:13;;;;;;;;;;;9.90;99.90;;;;;;5094694;28;19919;-61
2021/10/29 05:08:39;;;;;;;;;;;10.00;99.90;;;;;;5095069;28;19968;-61
2021/10/29 05:11:05;;;;;;;;;;;9.90;99.90;;;;;;5095181;28;20287;-62
2021/10/29 05:13:31;;;;;;;;;;;10.00;99.90;;;;;;5094164;28;20217;-62
2021/10/29 05:15:56;;;;;;;;;;;10.00;99.90;;;;;;5094929;28;20327;-62
2021/10/29 05:18:22;;;;;;;;;;;10.00;99.90;;;;;;5094654;28;19916;-62
2021/10/29 05:20:48;;;;;;;;;;;10.00;99.90;;;;;;5094595;28;20053;-62
2021/10/29 05:23:14;;;;;;;;;;;10.00;99.90;;;;;;5094894;28;19923;-61
2021/10/29 05:25:40;;;;;;;;;;;10.00;99.90;;;;;;5094669;28;19920;-61
2021/10/29 05:28:05;;;;;;;;;;;10.00;99.90;;;;;;5094502;28;19916;-62
2021/10/29 05:30:31;;;;;;;;;;;10.00;99.90;;;;;;5094442;28;19916;-61
2021/10/29 05:32:57;;;;;;;;;;;10.00;99.90;;;;;;5094626;28;20286;-61
2021/10/29 05:35:22;;;;;;;;;;;10.00;99.90;;;;;;5094337;28;19916;-62
2021/10/29 05:37:48;;;;;;;;;;;9.90;99.90;;;;;;5094393;28;19970;-61
2021/10/29 05:40:14;;;;;;;;;;;9.90;99.90;;;;;;5094031;28;19924;-62
2021/10/29 05:42:39;;;;;;;;;;;9.90;99.90;;;;;;5094201;28;19923;-62
2021/10/29 05:45:06;;;;;;;;;;;10.00;99.90;;;;;;5094365;28;19920;-62
2021/10/29 05:47:32;;;;;;;;;;;9.90;99.90;;;;;;5094110;28;19969;-61
2021/10/29 05:49:58;;;;;;;;;;;9.90;99.90;;;;;;5076140;28;19915;-62
2021/10/29 05:52:26;;;;;;;;;;;9.90;99.90;;;;;;5094420;28;19999;-61
2021/10/29 05:57:21;;;;;;;;;;;9.90;99.90;;;;;;5094091;28;19982;-61
2021/10/29 05:59:47;;;;;;;;;;;9.90;99.90;;;;;;5094036;28;20297;-61
2021/10/29 06:02:12;;;;;;;;;;;9.90;99.90;;;;;;5093913;28;19916;-61
2021/10/29 06:04:38;;;;;;;;;;;9.90;99.90;;;;;;5093987;28;20024;-62
2021/10/29 06:07:04;;;;;;;;;;;10.00;99.90;;;;;;5094128;28;19981;-62
2021/10/29 06:09:29;;;;;;;;;;;10.00;99.90;;;;;;5092398;28;19943;-62
2021/10/29 06:11:55;;;;;;;;;;;9.90;99.90;;;;;;5092054;28;19922;-62
2021/10/29 06:14:21;;;;;;;;;;;9.90;99.90;;;;;;5093677;28;19916;-61
2021/10/29 06:16:47;;;;;;;;;;;10.00;99.90;;;;;;5093527;28;20281;-61
2021/10/29 06:19:12;;;;;;;;;;;10.00;99.90;;;;;;5093506;28;19916;-61
2021/10/29 06:22:00;;;;;;;;;;;10.00;99.90;;;;;;5093589;28;19916;-62
2021/10/29 06:24:27;;;;;;;;;;;10.00;99.90;;;;;;5093680;28;19927;-62
2021/10/29 06:27:02;;;;;;;;;;;9.90;99.90;;;;;;5093465;28;20006;-60
2021/10/29 06:29:28;;;;;;;;;;;9.90;99.90;;;;;;5093484;28;19962;-61
2021/10/29 06:31:54;;;;;;;;;;;9.90;99.90;;;;;;5093459;28;19920;-61
2021/10/29 06:34:20;;;;;;;;;;;9.90;99.90;;;;;;5093178;28;19922;-60
2021/10/29 06:36:47;;;;;;;;;;;9.90;99.90;;;;;;5093261;28;19916;-60
2021/10/29 06:39:12;;;;;;;;;;;9.90;99.90;;;;;;5092831;28;19916;-60
2021/10/29 06:41:38;;;;;;;;;;;9.90;99.90;;;;;;5093182;28;19923;-60
2021/10/29 06:49:15;;;;;;;;;;;9.90;99.90;;;;;;5092880;28;19919;-60
2021/10/29 07:39:58;;;;;;;;;;;10.40;99.90;;;;;;5070226;28;19999;-60
2021/10/29 07:40:37;;;;;;;;;;;12.40;99.90;;;;;;5092165;28;19927;-61
2021/10/29 07:43:05;;;;;;;;;;;12.50;99.90;;;;;;5092324;28;19923;-60
2021/10/29 07:45:31;;;;;;;;;;;12.70;99.90;;;;;;5092148;28;19927;-61
2021/10/29 07:47:57;;;;;;;;;;;12.80;99.90;;;;;;5092294;28;20258;-61
2021/10/29 07:50:23;;;;;;;;;;;13.00;99.90;;;;;;5092193;28;20320;-60
2021/10/29 07:52:51;;;;;;;;;;;13.00;99.90;;;;;;5092103;28;19916;-61
2021/10/29 07:55:17;;;;;;;;;;;13.00;99.90;;;;;;5092277;28;19959;-61
2021/10/29 07:57:44;;;;;;;;;;;13.00;99.90;;;;;;5092092;28;19916;-60
2021/10/29 08:00:10;;;;;;;;;;;13.10;99.90;;;;;;5092101;28;20007;-61
2021/10/29 08:02:36;;;;;;;;;;;13.20;99.90;;;;;;5092064;28;20019;-61
2021/10/29 08:05:02;;;;;;;;;;;13.30;99.90;;;;;;5092142;28;20289;-61
2021/10/29 08:07:28;;;;;;;;;;;13.50;99.90;;;;;;5092094;28;20571;-61
2021/10/29 08:09:53;;;;;;;;;;;13.70;99.90;;;;;;5091876;28;20019;-60
2021/10/29 08:12:19;;;;;;;;;;;13.90;99.90;;;;;;5092166;28;19999;-61
2021/10/29 08:14:46;;;;;;;;;;;13.90;99.90;;;;;;5092103;28;20308;-61
2021/10/29 08:17:13;;;;;;;;;;;14.10;99.90;;;;;;5091904;28;19939;-61
2021/10/29 08:19:38;;;;;;;;;;;14.20;99.90;;;;;;5091906;28;19919;-61
2021/10/29 08:22:04;;;;;;;;;;;14.30;99.90;;;;;;5092029;28;19980;-62
2021/10/29 08:24:30;;;;;;;;;;;14.50;99.90;;;;;;5091959;28;19920;-63
2021/10/29 08:26:56;;;;;;;;;;;14.60;99.90;;;;;;5091821;28;20361;-61
2021/10/29 08:29:25;;;;;;;;;;;14.70;99.90;;;;;;5091668;28;20277;-61
2021/10/29 08:31:51;;;;;;;;;;;15.00;99.90;;;;;;5091821;28;19920;-61
2021/10/29 08:34:17;;;;;;;;;;;14.90;99.90;;;;;;5091859;28;19969;-62
2021/10/29 08:36:44;;;;;;;;;;;15.10;99.90;;;;;;5091634;28;19970;-61
2021/10/29 08:39:11;;;;;;;;;;;15.00;99.90;;;;;;5091721;28;20010;-61
2021/10/29 08:41:38;;;;;;;;;;;15.20;99.90;;;;;;5107590;28;19916;-60
2021/10/29 08:44:05;;;;;;;;;;;15.00;99.90;;;;;;5091608;28;20289;-61
2021/10/29 08:46:31;;;;;;;;;;;15.00;99.90;;;;;;5091579;28;19920;-61
2021/10/29 08:48:57;;;;;;;;;;;14.90;99.90;;;;;;5093264;28;19916;-62
2021/10/29 08:51:23;;;;;;;;;;;14.90;99.90;;;;;;5095125;28;20008;-62
2021/10/29 08:53:49;;;;;;;;;;;14.80;99.90;;;;;;5095330;28;19966;-61
2021/10/29 08:56:15;;;;;;;;;;;14.70;99.90;;;;;;5095268;28;19916;-61
2021/10/29 08:58:59;;;;;;;;;;;14.80;99.90;;;;;;5095042;28;19920;-62
2021/10/29 09:01:25;;;;;;;;;;;14.70;99.90;;;;;;5095075;28;19916;-61
2021/10/29 09:03:59;;;;;;;;;;;14.60;99.90;;;;;;5094894;28;20300;-62
2021/10/29 09:06:46;;;;;;;;;;;14.50;99.90;;;;;;5095071;28;19927;-63
2021/10/29 09:31:33;;;;;;;;;;;14.40;99.90;;;;;;5072075;28;19948;-62
2021/10/29 09:34:01;;;;;;;;;;;14.40;99.90;;;;;;5072107;28;19950;-61
2021/10/29 09:36:28;;;;;;;;;;;14.50;99.90;;;;;;5071997;28;19997;-60
2021/10/29 09:38:55;;;;;;;;;;;14.60;99.90;;;;;;5071984;28;19923;-61
2021/10/29 09:41:22;;;;;;;;;;;14.50;99.90;;;;;;5071717;28;19921;-60
2021/10/29 09:43:53;;;;;;;;;;;14.60;99.90;;;;;;5072020;28;20429;-60
2021/10/29 09:46:40;;;;;;;;;;;14.60;99.90;;;;;;5071803;28;19920;-60
2021/10/29 09:49:08;;;;;;;;;;;14.60;99.90;;;;;;5067516;28;20275;-61
2021/10/29 09:51:46;;;;;;;;;;;14.60;99.90;;;;;;5073869;28;19916;-61
2021/10/29 09:54:15;;;;;;;;;;;14.70;99.90;;;;;;5073745;28;20439;-61
2021/10/29 09:59:10;;;;;;;;;;;14.80;99.90;;;;;;5073364;28;19925;-60
2021/10/29 10:01:36;;;;;;;;;;;14.90;99.90;;;;;;5073649;28;19939;-61
2021/10/29 10:04:03;;;;;;;;;;;15.00;99.90;;;;;;5073507;28;19928;-61
2021/10/29 10:06:40;;;;;;;;;;;15.10;99.90;;;;;;5073697;28;19931;-61
2021/10/29 10:09:08;;;;;;;;;;;15.10;99.90;;;;;;5073673;28;19955;-62
2021/10/29 10:11:35;;;;;;;;;;;15.10;99.90;;;;;;5073429;28;20003;-62
2021/10/29 10:14:04;;;;;;;;;;;15.10;99.90;;;;;;5073386;28;19940;-62
2021/10/29 10:16:31;;;;;;;;;;;15.20;99.90;;;;;;5073266;28;19916;-62
2021/10/29 10:18:57;;;;;;;;;;;15.10;99.90;;;;;;5073270;28;19916;-62
2021/10/29 10:21:25;;;;;;;;;;;15.10;99.90;;;;;;5073248;28;19923;-61
2021/10/29 10:23:53;;;;;;;;;;;15.10;99.90;;;;;;5073242;28;20014;-61
2021/10/29 10:26:31;;;;;;;;;;;15.10;99.90;;;;;;5073184;28;20322;-61
2021/10/29 10:29:22;;;;;;;;;;;15.10;99.90;;;;;;5073146;28;20277;-61
2021/10/29 10:43:14;;;;;;;;;;;15.50;99.90;;;;;;5030842;28;19929;-61
2021/10/29 10:48:27;;;;;;;;;;;15.60;99.90;;;;;;5030688;28;19998;-61
2021/10/29 10:50:58;;;;;;;;;;;15.70;99.90;;;;;;5030625;28;19924;-61
2021/10/29 10:53:41;;;;;;;;;;;15.80;99.90;;;;;;5030606;28;19960;-63
2021/10/29 10:56:25;;;;;;;;;;;15.90;99.90;;;;;;5030503;28;20390;-62
2021/10/29 11:07:01;;;;;;;;;;;16.10;99.90;;;;;;5030229;28;19921;-62
2021/10/29 11:10:10;;;;;;;;;;;16.20;99.90;;;;;;5030595;28;19917;-61
2021/10/29 11:12:42;;;;;;;;;;;16.30;99.90;;;;;;4971113;28;20352;-61
2021/10/29 11:15:07;;;;;;;;;;;16.40;99.90;;;;;;5021811;28;19917;-61
2021/10/29 11:17:39;;;;;;;;;;;16.50;99.90;;;;;;5030323;28;19917;-61
2021/10/29 11:20:05;;;;;;;;;;;16.60;99.90;;;;;;5030188;28;19917;-61
2021/10/29 11:22:46;;;;;;;;;;;16.60;99.90;;;;;;5030116;28;20292;-61
2021/10/29 11:25:12;;;;;;;;;;;16.80;99.90;;;;;;5030091;28;19971;-62
2021/10/29 11:27:41;;;;;;;;;;;16.80;99.90;;;;;;5030122;28;19920;-61
2021/10/29 11:30:06;;;;;;;;;;;17.00;99.90;;;;;;5030324;28;20056;-62
2021/10/29 11:32:32;;;;;;;;;;;17.00;99.90;;;;;;5030069;28;19917;-62
2021/10/29 11:34:59;;;;;;;;;;;17.00;99.90;;;;;;5013164;28;19924;-62
2021/10/29 11:37:25;;;;;;;;;;;17.10;99.90;;;;;;5029933;28;19943;-62
2021/10/29 11:39:51;;;;;;;;;;;17.30;99.90;;;;;;5029861;28;19995;-62
2021/10/29 11:42:18;;;;;;;;;;;17.20;99.90;;;;;;5029921;28;20432;-61
2021/10/29 11:44:43;;;;;;;;;;;17.30;99.90;;;;;;5029781;28;19928;-61
2021/10/29 11:47:09;;;;;;;;;;;17.40;99.90;;;;;;5036365;28;19916;-63
2021/10/29 11:49:35;;;;;;;;;;;17.40;99.90;;;;;;5072070;28;19917;-61
2021/10/29 11:52:04;;;;;;;;;;;17.40;99.90;;;;;;5071929;28;19920;-61
2021/10/29 11:54:43;;;;;;;;;;;17.40;99.90;;;;;;5071954;28;19991;-61
2021/10/29 12:07:44;;;;;;;;;;;17.60;99.90;;;;;;5071818;28;19920;-61
2021/10/29 12:10:16;;;;;;;;;;;17.50;99.90;;;;;;5071904;28;19916;-62
2021/10/29 12:12:43;;;;;;;;;;;17.50;99.90;;;;;;5071641;28;19924;-62
2021/10/29 12:15:13;;;;;;;;;;;17.40;99.90;;;;;;5071805;28;19916;-62
2021/10/29 12:18:03;;;;;;;;;;;17.40;99.90;;;;;;5071707;28;19916;-62
2021/10/29 12:20:39;;;;;;;;;;;17.40;99.90;;;;;;5087388;28;19916;-61
2021/10/29 12:23:08;;;;;;;;;;;17.40;99.90;;;;;;5073644;28;19963;-62
2021/10/29 12:28:10;;;;;;;;;;;17.50;99.90;;;;;;5075423;28;19927;-61
2021/10/29 12:30:40;;;;;;;;;;;17.50;99.90;;;;;;5108072;28;19998;-62
2021/10/29 13:03:35;;;;;;;;;;;17.60;99.90;;;;;;5095326;28;19969;-63
2021/10/29 13:06:03;;;;;;;;;;;17.50;99.90;;;;;;5095319;28;19928;-63
2021/10/29 13:08:28;;;;;;;;;;;17.50;99.90;;;;;;5095228;28;19943;-62
2021/10/29 13:10:56;;;;;;;;;;;17.60;99.90;;;;;;5095255;28;20444;-62
2021/10/29 13:13:27;;;;;;;;;;;17.60;99.90;;;;;;5095106;28;19971;-62
2021/10/29 13:16:00;;;;;;;;;;;17.60;99.90;;;;;;5094730;28;20361;-62
2021/10/29 13:18:36;;;;;;;;;;;17.70;99.90;;;;;;5110731;28;19916;-63
2021/10/29 13:58:06;;;;;;;;;;;16.80;99.90;;;;;;5031625;28;19924;-63
2021/10/29 14:33:05;;;;;;;;;;;16.90;99.90;;;;;;5091038;28;19922;-63
2021/10/29 14:35:37;;;;;;;;;;;16.90;99.90;;;;;;5090972;28;20374;-63
2021/10/29 14:45:46;;;;;;;;;;;16.80;99.90;;;;;;5090615;28;20403;-63
2021/10/29 14:53:24;;;;;;;;;;;16.60;99.90;;;;;;5090791;28;20013;-63
2021/10/29 15:06:39;;;;;;;;;;;16.30;99.90;;;;;;5090429;28;19927;-64
2021/10/29 15:31:10;;;;;;;;;;;15.90;99.90;;;;;;5069836;28;20386;-64
2021/10/29 15:46:36;;;;;;;;;;;15.50;99.90;;;;;;5069855;28;19951;-64
2021/10/29 15:49:07;;;;;;;;;;;15.40;99.90;;;;;;5081483;28;19916;-64
2021/10/29 15:51:34;;;;;;;;;;;15.40;99.90;;;;;;5092197;28;19923;-64
2021/10/29 15:54:03;;;;;;;;;;;15.40;99.90;;;;;;5092175;28;20430;-64
2021/10/29 15:59:11;;;;;;;;;;;15.30;99.90;;;;;;5096148;28;20753;-64
2021/10/29 16:18:00;;;;;;;;;;;15.10;99.90;;;;;;5095889;28;20349;-63
2021/10/29 16:20:25;;;;;;;;;;;15.10;99.90;;;;;;5095685;28;19969;-64
2021/10/29 16:22:53;;;;;;;;;;;15.10;99.90;;;;;;5095872;28;19916;-64
2021/10/29 16:25:22;;;;;;;;;;;15.10;99.90;;;;;;5095633;28;20422;-63
2021/10/29 16:30:16;;;;;;;;;;;14.90;99.90;;;;;;5095847;28;19922;-64
2021/10/29 16:35:34;;;;;;;;;;;14.90;99.90;;;;;;5095488;28;19923;-63
2021/10/29 16:38:04;;;;;;;;;;;14.90;99.90;;;;;;5095481;28;19923;-64
2021/10/29 16:40:29;;;;;;;;;;;14.90;99.90;;;;;;5063309;28;19920;-64
2021/10/29 16:42:55;;;;;;;;;;;14.80;99.90;;;;;;5055052;28;19923;-64
2021/10/29 16:45:21;;;;;;;;;;;14.90;99.90;;;;;;5054943;28;20015;-64
2021/10/29 16:47:47;;;;;;;;;;;14.90;99.90;;;;;;5055105;28;19917;-63
2021/10/29 16:50:14;;;;;;;;;;;14.90;99.90;;;;;;5055040;28;19970;-64
2021/10/29 16:52:39;;;;;;;;;;;14.90;99.90;;;;;;5055030;28;20298;-63
2021/10/29 16:55:06;;;;;;;;;;;15.00;99.90;;;;;;5054897;28;19917;-63
2021/10/29 16:57:32;;;;;;;;;;;15.00;99.90;;;;;;5055007;28;20354;-63
2021/10/29 16:59:57;;;;;;;;;;;15.00;99.90;;;;;;5054909;28;20003;-63
2021/10/29 17:02:23;;;;;;;;;;;15.00;99.90;;;;;;5054870;28;20007;-64
2021/10/29 17:04:51;;;;;;;;;;;14.90;99.90;;;;;;5054576;28;19965;-63
2021/10/29 17:07:16;;;;;;;;;;;14.90;99.90;;;;;;5053893;28;19939;-63
2021/10/29 17:09:42;;;;;;;;;;;14.90;99.90;;;;;;5053657;28;19916;-63
2021/10/29 17:12:07;;;;;;;;;;;14.90;99.90;;;;;;5054807;28;19916;-62
2021/10/29 17:14:33;;;;;;;;;;;14.90;99.90;;;;;;5054654;28;20011;-63
2021/10/29 17:16:58;;;;;;;;;;;14.90;99.90;;;;;;5054851;28;19921;-63
2021/10/29 17:19:24;;;;;;;;;;;14.80;99.90;;;;;;5054583;28;19927;-63
2021/10/29 17:21:50;;;;;;;;;;;14.90;99.90;;;;;;5054567;28;19917;-63
2021/10/29 17:24:17;;;;;;;;;;;14.90;99.90;;;;;;5053252;28;19916;-63
2021/10/29 17:26:42;;;;;;;;;;;14.90;99.90;;;;;;5054431;28;19924;-63
2021/10/29 17:29:08;;;;;;;;;;;14.90;99.90;;;;;;5054421;28;19916;-63
2021/10/29 17:31:33;;;;;;;;;;;14.90;99.90;;;;;;5054308;28;19916;-63
2021/10/29 17:33:59;;;;;;;;;;;14.90;99.90;;;;;;5086728;28;19948;-63
2021/10/29 17:36:25;;;;;;;;;;;14.90;99.90;;;;;;5054178;28;19916;-63
2021/10/29 17:38:51;;;;;;;;;;;14.80;99.90;;;;;;5054284;28;20392;-63
2021/10/29 17:41:16;;;;;;;;;;;14.80;99.90;;;;;;5088634;28;19966;-63
2021/10/29 17:43:42;;;;;;;;;;;14.70;99.90;;;;;;5094411;28;20002;-62
2021/10/29 17:46:08;;;;;;;;;;;14.70;99.90;;;;;;5094211;28;20353;-62
2021/10/29 17:48:33;;;;;;;;;;;14.70;99.90;;;;;;5094135;28;19916;-62
2021/10/29 17:50:59;;;;;;;;;;;14.70;99.90;;;;;;5094076;28;19962;-62
2021/10/29 17:53:28;;;;;;;;;;;14.60;99.90;;;;;;5094323;28;19961;-63
2021/10/29 17:55:56;;;;;;;;;;;14.60;99.90;;;;;;5094180;28;19915;-63
2021/10/29 17:58:22;;;;;;;;;;;14.50;99.90;;;;;;5094083;28;19916;-62
2021/10/29 18:00:48;;;;;;;;;;;14.50;99.90;;;;;;5094087;28;19923;-63
2021/10/29 18:03:14;;;;;;;;;;;14.50;99.90;;;;;;5093836;28;19916;-62
2021/10/29 18:05:39;;;;;;;;;;;14.40;99.90;;;;;;5094007;28;19920;-62
2021/10/29 18:08:06;;;;;;;;;;;14.40;99.90;;;;;;5094007;28;19930;-62
2021/10/29 18:10:33;;;;;;;;;;;14.40;99.90;;;;;;5094163;28;20233;-62
2021/10/29 18:12:59;;;;;;;;;;;14.40;99.90;;;;;;5093930;28;20063;-62
2021/10/29 18:15:24;;;;;;;;;;;14.40;99.90;;;;;;5093889;28;20444;-63
2021/10/29 18:17:50;;;;;;;;;;;14.40;99.90;;;;;;5075350;28;19922;-62
2021/10/29 18:20:15;;;;;;;;;;;14.40;99.90;;;;;;5093127;28;19927;-63
2021/10/29 18:22:41;;;;;;;;;;;14.50;99.90;;;;;;5093475;28;20032;-62
2021/10/29 18:25:07;;;;;;;;;;;14.50;99.90;;;;;;5093467;28;19919;-62
2021/10/29 18:27:33;;;;;;;;;;;14.60;99.90;;;;;;5093484;28;19923;-63
2021/10/29 18:29:59;;;;;;;;;;;14.60;99.90;;;;;;5093427;28;19923;-62
2021/10/29 18:32:25;;;;;;;;;;;14.70;99.90;;;;;;5093242;28;19916;-63
2021/10/29 18:34:51;;;;;;;;;;;14.70;99.90;;;;;;5093431;28;20010;-62
2021/10/29 18:37:19;;;;;;;;;;;14.80;99.90;;;;;;5093406;28;19956;-63
2021/10/29 18:39:45;;;;;;;;;;;14.80;99.90;;;;;;5105690;28;20302;-62
2021/10/29 18:42:11;;;;;;;;;;;14.80;99.90;;;;;;5072884;28;19920;-63
2021/10/29 18:44:36;;;;;;;;;;;14.90;99.90;;;;;;5072743;28;19916;-62
2021/10/29 18:47:03;;;;;;;;;;;14.90;99.90;;;;;;5072760;28;19923;-63
2021/10/29 18:49:29;;;;;;;;;;;14.90;99.90;;;;;;5072748;28;19917;-62
2021/10/29 18:51:55;;;;;;;;;;;14.90;99.90;;;;;;5072905;28;19916;-62
2021/10/29 18:54:20;;;;;;;;;;;15.00;99.90;;;;;;5072738;28;19969;-62
2021/10/29 18:56:48;;;;;;;;;;;15.00;99.90;;;;;;5072738;28;19917;-63
2021/10/29 18:59:14;;;;;;;;;;;15.00;99.90;;;;;;5072561;28;19916;-62
2021/10/29 19:01:39;;;;;;;;;;;14.90;99.90;;;;;;5070938;28;20290;-62
2021/10/29 19:04:05;;;;;;;;;;;14.90;99.90;;;;;;5072415;28;20018;-62
2021/10/29 19:06:31;;;;;;;;;;;14.90;99.90;;;;;;5072879;28;20391;-62
2021/10/29 19:08:57;;;;;;;;;;;15.00;99.90;;;;;;5072875;28;19995;-62
2021/10/29 19:11:27;;;;;;;;;;;14.90;99.90;;;;;;5072508;28;20413;-62
2021/10/29 19:13:56;;;;;;;;;;;14.90;99.90;;;;;;5072640;28;19970;-62
2021/10/29 19:16:21;;;;;;;;;;;14.90;99.90;;;;;;5072157;28;19926;-62
2021/10/29 19:18:48;;;;;;;;;;;14.90;99.90;;;;;;5072618;28;19920;-62
2021/10/29 19:21:13;;;;;;;;;;;15.00;99.90;;;;;;5072625;28;19927;-63
2021/10/29 19:23:39;;;;;;;;;;;14.90;99.90;;;;;;5105068;28;19920;-62